createdAt,value
2018-10-05T00:02:06.242Z,100989.42
2018-10-05T00:06:11.296Z,100978.85
2018-10-05T00:10:16.545Z,100971.83
2018-10-05T00:14:21.639Z,100973.53
2018-10-05T00:18:26.677Z,100972.45
2018-10-05T00:22:31.815Z,100966.19
2018-10-05T00:26:36.838Z,100973.79
2018-10-05T00:30:41.888Z,100960.28
2018-10-05T00:34:46.914Z,100951.12
2018-10-05T00:38:51.924Z,100937.66
2018-10-05T00:42:56.997Z,100943.03
2018-10-05T00:47:02.013Z,100935.22
2018-10-05T00:51:07.118Z,100926.31
2018-10-05T00:55:12.133Z,100918.33
2018-10-05T00:59:17.155Z,100917.81
2018-10-05T01:03:22.166Z,100912.14
2018-10-05T01:07:27.192Z,100910.93
2018-10-05T01:11:32.295Z,100915.37
2018-10-05T01:15:37.502Z,100904.21
2018-10-05T01:19:43.081Z,100901.96
2018-10-05T01:23:48.117Z,100903.33
2018-10-05T01:27:53.160Z,100903.83
2018-10-05T01:31:58.191Z,100909.00
2018-10-05T01:36:03.209Z,100907.56
2018-10-05T01:40:08.238Z,100899.05
2018-10-05T01:44:13.260Z,100891.75
2018-10-05T01:48:18.280Z,100892.06
2018-10-05T01:52:23.344Z,100891.54
2018-10-05T01:56:28.385Z,100889.36
2018-10-05T02:00:33.446Z,100890.09
2018-10-05T02:04:38.465Z,100897.59
2018-10-05T02:08:43.476Z,100900.77
2018-10-05T02:12:48.489Z,100890.91
2018-10-05T02:16:53.535Z,100883.07
2018-10-05T02:20:58.796Z,100889.61
2018-10-05T02:25:03.876Z,100881.13
2018-10-05T02:29:08.912Z,100877.77
2018-10-05T02:33:13.914Z,100875.87
2018-10-05T02:37:18.951Z,100871.42
2018-10-05T02:41:23.985Z,100867.08
2018-10-05T02:45:29.054Z,100861.59
2018-10-05T02:49:34.085Z,100858.31
2018-10-05T02:53:39.137Z,100856.89
2018-10-05T02:57:44.217Z,100850.16
2018-10-05T03:02:06.186Z,100845.49
2018-10-05T03:06:11.221Z,100844.60
2018-10-05T03:10:16.225Z,100836.13
2018-10-05T03:14:21.246Z,100834.98
2018-10-05T03:18:26.269Z,100833.91
2018-10-05T03:22:31.321Z,100826.52
2018-10-05T03:26:36.381Z,100825.25
2018-10-05T03:30:41.420Z,100824.72
2018-10-05T03:34:46.472Z,100824.54
2018-10-05T03:38:51.510Z,100817.95
2018-10-05T03:42:56.550Z,100813.59
2018-10-05T03:47:01.582Z,100806.05
2018-10-05T03:51:06.633Z,100805.76
2018-10-05T03:55:11.634Z,100809.62
2018-10-05T03:59:16.672Z,100808.91
2018-10-05T04:03:21.685Z,100812.64
2018-10-05T04:07:26.709Z,100819.09
2018-10-05T04:11:31.719Z,100815.53
2018-10-05T04:15:36.737Z,100825.11
2018-10-05T04:19:41.749Z,100818.34
2018-10-05T04:23:46.750Z,100817.69
2018-10-05T04:27:51.752Z,100811.64
2018-10-05T04:31:56.739Z,100806.34
2018-10-05T04:36:01.765Z,100813.78
2018-10-05T04:40:06.809Z,100812.31
2018-10-05T04:44:11.861Z,100809.57
2018-10-05T04:48:16.886Z,100789.70
2018-10-05T04:52:21.912Z,100783.63
2018-10-05T04:56:26.939Z,100783.63
2018-10-05T05:00:31.929Z,100787.39
2018-10-05T05:04:36.937Z,100785.76
2018-10-05T05:08:41.990Z,100792.63
2018-10-05T05:12:47.050Z,100794.98
2018-10-05T05:16:52.131Z,100789.59
2018-10-05T05:20:57.195Z,100778.78
2018-10-05T05:25:02.223Z,100794.46
2018-10-05T05:29:07.909Z,100788.53
2018-10-05T05:33:12.936Z,100799.52
2018-10-05T05:37:18.017Z,100807.88
2018-10-05T05:41:23.097Z,100801.28
2018-10-05T05:45:28.147Z,100791.59
2018-10-05T05:49:33.178Z,100788.24
2018-10-05T05:53:38.225Z,100789.69
2018-10-05T05:57:43.229Z,100791.53
2018-10-05T06:01:48.260Z,100791.52
2018-10-05T06:05:53.360Z,100793.42
2018-10-05T06:09:58.413Z,100801.55
2018-10-05T06:14:03.461Z,100796.77
2018-10-05T06:18:08.594Z,100785.63
2018-10-05T06:22:13.731Z,100794.58
2018-10-05T06:26:18.631Z,100796.45
2018-10-05T06:30:23.674Z,100798.19
2018-10-05T06:34:28.781Z,100800.48
2018-10-05T06:38:34.422Z,100799.28
2018-10-05T06:42:39.554Z,100798.08
2018-10-05T06:46:44.617Z,100804.45
2018-10-05T06:50:49.662Z,100807.78
2018-10-05T06:54:54.669Z,100807.03
2018-10-05T06:58:59.689Z,100805.63
2018-10-05T07:03:04.713Z,100806.72
2018-10-05T07:07:09.759Z,100808.28
2018-10-05T07:11:14.835Z,100813.91
2018-10-05T07:15:19.845Z,100810.55
2018-10-05T07:19:24.912Z,100803.31
2018-10-05T07:23:29.971Z,100811.13
2018-10-05T07:27:35.007Z,100808.42
2018-10-05T07:31:40.053Z,100810.19
2018-10-05T07:35:45.114Z,100803.86
2018-10-05T07:39:50.149Z,100802.94
2018-10-05T07:43:55.170Z,100793.07
2018-10-05T07:48:00.232Z,100789.78
2018-10-05T07:52:05.238Z,100793.92
2018-10-05T07:56:10.269Z,100782.14
2018-10-05T08:00:15.324Z,100768.83
2018-10-05T08:04:20.437Z,100763.70
2018-10-05T08:08:25.477Z,100758.41
2018-10-05T08:12:30.512Z,100766.19
2018-10-05T08:16:35.571Z,100751.56
2018-10-05T08:20:40.609Z,100750.20
2018-10-05T08:24:45.652Z,100746.30
2018-10-05T08:28:50.699Z,100737.09
2018-10-05T08:32:55.767Z,100736.38
2018-10-05T08:37:00.785Z,100731.14
2018-10-05T08:41:05.841Z,100731.55
2018-10-05T08:45:10.864Z,100718.19
2018-10-05T08:49:15.925Z,100718.87
2018-10-05T08:53:20.979Z,100714.59
2018-10-05T08:57:26.126Z,100718.33
2018-10-05T09:01:31.194Z,100713.55
2018-10-05T09:05:36.248Z,100709.08
2018-10-05T09:09:41.248Z,100703.84
2018-10-05T09:13:46.750Z,100694.10
2018-10-05T09:17:51.814Z,100688.83
2018-10-05T09:21:56.872Z,100669.30
2018-10-05T09:26:01.930Z,100659.12
2018-10-05T09:30:07.997Z,100665.14
2018-10-05T09:34:13.202Z,100651.98
2018-10-05T09:38:18.280Z,100650.10
2018-10-05T09:42:24.026Z,100642.89
2018-10-05T09:46:29.090Z,100643.03
2018-10-05T09:50:34.585Z,100628.86
2018-10-05T09:54:39.624Z,100625.81
2018-10-05T09:58:44.669Z,100621.32
2018-10-05T10:02:55.315Z,100618.73
2018-10-05T10:07:00.353Z,100605.14
2018-10-05T10:11:05.399Z,100594.65
2018-10-05T10:15:10.462Z,100599.87
2018-10-05T10:19:15.486Z,100590.48
2018-10-05T10:23:20.554Z,100588.58
2018-10-05T10:27:25.695Z,100586.19
2018-10-05T10:31:31.741Z,100570.62
2018-10-05T10:35:36.792Z,100568.72
2018-10-05T10:39:41.820Z,100557.66
2018-10-05T10:43:47.907Z,100564.92
2018-10-05T10:47:53.860Z,100555.58
2018-10-05T10:51:58.893Z,100550.14
2018-10-05T10:56:04.004Z,100536.52
2018-10-05T11:00:09.096Z,100531.28
2018-10-05T11:04:14.265Z,100520.24
2018-10-05T11:08:19.221Z,100515.25
2018-10-05T11:12:24.245Z,100512.23
2018-10-05T11:16:29.301Z,100503.52
2018-10-05T11:20:34.361Z,100490.18
2018-10-05T11:24:39.409Z,100485.41
2018-10-05T11:28:44.447Z,100472.02
2018-10-05T11:32:49.512Z,100465.48
2018-10-05T11:36:54.592Z,100461.70
2018-10-05T11:40:59.695Z,100441.13
2018-10-05T11:45:04.774Z,100448.56
2018-10-05T11:49:09.820Z,100446.08
2018-10-05T11:53:14.962Z,100433.95
2018-10-05T11:57:20.008Z,100422.69
2018-10-05T12:01:25.206Z,100420.34
2018-10-05T12:05:30.265Z,100407.09
2018-10-05T12:09:35.299Z,100407.04
2018-10-05T12:13:40.334Z,100392.05
2018-10-05T12:17:45.439Z,100390.72
2018-10-05T12:21:50.474Z,100380.73
2018-10-05T12:25:55.531Z,100373.28
2018-10-05T12:30:00.598Z,100373.05
2018-10-05T12:34:05.594Z,100346.84
2018-10-05T12:38:10.658Z,100353.66
2018-10-05T12:42:15.690Z,100351.97
2018-10-05T12:46:20.767Z,100349.30
2018-10-05T12:50:25.829Z,100334.91
2018-10-05T12:54:30.878Z,100322.20
2018-10-05T12:58:35.916Z,100316.41
2018-10-05T13:02:40.962Z,100307.63
2018-10-05T13:06:45.985Z,100301.99
2018-10-05T13:10:51.027Z,100295.94
2018-10-05T13:14:56.096Z,100292.16
2018-10-05T13:19:01.202Z,100294.27
2018-10-05T13:23:08.996Z,100275.84
2018-10-05T13:27:14.143Z,100278.76
2018-10-05T13:31:19.212Z,100282.34
2018-10-05T13:35:24.249Z,100274.22
2018-10-05T13:39:29.289Z,100268.70
2018-10-05T13:43:34.329Z,100272.59
2018-10-05T13:47:39.374Z,100261.03
2018-10-05T13:51:44.421Z,100255.08
2018-10-05T13:55:49.469Z,100253.95
2018-10-05T13:59:54.496Z,100248.55
2018-10-05T14:03:59.531Z,100237.75
2018-10-05T14:08:04.542Z,100243.25
2018-10-05T14:12:09.597Z,100244.00
2018-10-05T14:16:14.621Z,100237.59
2018-10-05T14:20:19.654Z,100233.88
2018-10-05T14:24:24.686Z,100235.61
2018-10-05T14:28:29.731Z,100229.00
2018-10-05T14:32:34.749Z,100220.84
2018-10-05T14:36:39.786Z,100213.87
2018-10-05T14:40:44.832Z,100219.48
2018-10-05T14:44:49.857Z,100210.77
2018-10-05T14:48:54.893Z,100211.27
2018-10-05T14:52:59.925Z,100208.64
2018-10-05T14:57:05.052Z,100202.66
2018-10-05T15:01:10.018Z,100201.27
2018-10-05T15:05:15.071Z,100200.41
2018-10-05T15:09:20.102Z,100188.90
2018-10-05T15:13:25.149Z,100184.50
2018-10-05T15:17:30.298Z,100181.80
2018-10-05T15:21:35.447Z,100178.52
2018-10-05T15:25:40.390Z,100178.00
2018-10-05T15:29:45.433Z,100179.11
2018-10-05T15:33:50.482Z,100178.69
2018-10-05T15:37:55.526Z,100175.98
2018-10-05T15:42:00.592Z,100171.77
2018-10-05T15:46:08.613Z,100162.23
2018-10-05T15:50:13.690Z,100160.81
2018-10-05T15:54:18.765Z,100160.37
2018-10-05T15:58:23.813Z,100162.95
2018-10-05T16:02:28.845Z,100164.26
2018-10-05T16:06:34.246Z,100162.31
2018-10-05T16:10:39.284Z,100154.22
2018-10-05T16:14:44.304Z,100150.88
2018-10-05T16:18:49.377Z,100139.38
2018-10-05T16:22:54.423Z,100145.14
2018-10-05T16:26:59.461Z,100136.19
2018-10-05T16:31:04.596Z,100127.05
2018-10-05T16:35:09.605Z,100131.52
2018-10-05T16:39:14.645Z,100122.88
2018-10-05T16:43:19.693Z,100123.97
2018-10-05T16:47:24.796Z,100119.36
2018-10-05T16:51:29.810Z,100116.66
2018-10-05T16:55:34.911Z,100122.89
2018-10-05T16:59:39.950Z,100122.39
2018-10-05T17:03:45.114Z,100118.80
2018-10-05T17:07:50.206Z,100122.55
2018-10-05T17:11:55.258Z,100118.95
2018-10-05T17:16:00.348Z,100109.20
2018-10-05T17:20:05.572Z,100123.70
2018-10-05T17:24:10.689Z,100116.55
2018-10-05T17:28:16.218Z,100121.30
2018-10-05T17:32:21.361Z,100116.59
2018-10-05T17:36:26.634Z,100114.61
2018-10-05T17:40:31.786Z,100114.25
2018-10-05T17:44:36.898Z,100109.72
2018-10-05T17:48:43.608Z,100110.35
2018-10-05T17:52:48.733Z,100110.82
2018-10-05T17:56:53.926Z,100102.33
2018-10-05T18:00:59.032Z,100102.98
2018-10-05T18:05:04.093Z,100097.53
2018-10-05T18:09:09.158Z,100101.63
2018-10-05T18:13:14.249Z,100108.03
2018-10-05T18:17:19.297Z,100101.05
2018-10-05T18:21:24.321Z,100105.39
2018-10-05T18:25:29.365Z,100109.84
2018-10-05T18:29:34.485Z,100099.55
2018-10-05T18:33:39.546Z,100101.25
2018-10-05T18:37:44.681Z,100097.08
2018-10-05T18:41:49.784Z,100097.27
2018-10-05T18:45:54.830Z,100089.25
2018-10-05T18:49:59.892Z,100090.91
2018-10-05T18:54:04.953Z,100089.95
2018-10-05T18:58:10.009Z,100089.81
2018-10-05T19:02:16.015Z,100090.48
2018-10-05T19:06:21.212Z,100093.16
2018-10-05T19:10:26.261Z,100087.45
2018-10-05T19:14:31.381Z,100082.95
2018-10-05T19:18:36.443Z,100083.98
2018-10-05T19:22:41.530Z,100074.34
2018-10-05T19:26:47.252Z,100071.20
2018-10-05T19:30:52.252Z,100074.95
2018-10-05T19:34:57.306Z,100063.69
2018-10-05T19:39:02.332Z,100073.69
2018-10-05T19:43:07.415Z,100076.55
2018-10-05T19:47:12.443Z,100074.89
2018-10-05T19:51:17.502Z,100073.17
2018-10-05T19:55:22.555Z,100080.17
2018-10-05T19:59:27.628Z,100078.98
2018-10-05T20:03:32.697Z,100076.98
2018-10-05T20:07:37.743Z,100086.62
2018-10-05T20:11:42.801Z,100082.26
2018-10-05T20:15:47.846Z,100076.61
2018-10-05T20:19:52.881Z,100080.89
2018-10-05T20:23:57.917Z,100079.38
2018-10-05T20:28:02.958Z,100073.19
2018-10-05T20:32:08.037Z,100078.50
2018-10-05T20:36:13.255Z,100086.59
2018-10-05T20:40:18.151Z,100086.40
2018-10-05T20:44:23.219Z,100081.05
2018-10-05T20:48:28.241Z,100075.38
2018-10-05T20:52:33.384Z,100079.61
2018-10-05T20:56:38.433Z,100085.23
2018-10-05T21:00:43.473Z,100089.84
2018-10-05T21:04:48.497Z,100085.44
2018-10-05T21:08:53.552Z,100090.11
2018-10-05T21:12:58.660Z,100084.19
2018-10-05T21:17:03.805Z,100087.63
2018-10-05T21:21:08.850Z,100080.70
2018-10-05T21:25:13.900Z,100073.88
2018-10-05T21:29:18.945Z,100068.88
2018-10-05T21:33:24.086Z,100071.75
2018-10-05T21:37:29.041Z,100066.97
2018-10-05T21:41:34.103Z,100068.30
2018-10-05T21:45:39.165Z,100074.47
2018-10-05T21:49:44.205Z,100069.40
2018-10-05T21:53:49.321Z,100067.55
2018-10-05T21:57:54.360Z,100061.92
2018-10-05T22:01:59.401Z,100070.84
2018-10-05T22:06:04.659Z,100075.30
2018-10-05T22:10:09.702Z,100065.83
2018-10-05T22:14:14.748Z,100066.56
2018-10-05T22:18:19.794Z,100064.88
2018-10-05T22:22:25.399Z,100061.78
2018-10-05T22:26:30.429Z,100058.64
2018-10-05T22:30:35.465Z,100055.48
2018-10-05T22:34:40.565Z,100059.16
2018-10-05T22:38:45.662Z,100054.70
2018-10-05T22:42:50.734Z,100059.31
2018-10-05T22:46:55.969Z,100054.97
2018-10-05T22:51:01.042Z,100056.17
2018-10-05T22:55:06.089Z,100047.00
2018-10-05T22:59:11.136Z,100045.67
2018-10-05T23:03:16.734Z,100045.42
2018-10-05T23:07:21.878Z,100043.00
2018-10-05T23:11:26.965Z,100037.09
2018-10-05T23:15:32.616Z,100036.01
2018-10-05T23:19:37.661Z,100036.95
2018-10-05T23:23:42.711Z,100040.15
2018-10-05T23:27:47.746Z,100031.24
2018-10-05T23:31:52.798Z,100043.03
2018-10-05T23:35:57.845Z,100031.03
2018-10-05T23:40:02.921Z,100038.80
2018-10-05T23:44:08.407Z,100034.38
2018-10-05T23:48:13.437Z,100034.97
2018-10-05T23:52:42.882Z,100041.05
2018-10-05T23:56:47.938Z,100033.02
